createdAt,value
2018-03-07T00:01:58.329Z,52.20
2018-03-07T00:04:32.883Z,57.97
2018-03-07T00:07:06.851Z,54.50
2018-03-07T00:09:41.310Z,54.27
2018-03-07T00:12:15.079Z,50.60
2018-03-07T00:14:48.704Z,52.40
2018-03-07T00:17:23.077Z,51.07
2018-03-07T00:19:56.911Z,53.90
2018-03-07T00:22:32.226Z,55.13
2018-03-07T00:25:06.164Z,59.47
2018-03-07T00:27:40.636Z,59.50
2018-03-07T00:30:15.092Z,57.97
2018-03-07T00:32:48.811Z,53.23
2018-03-07T00:35:22.607Z,53.80
2018-03-07T00:37:56.453Z,54.90
2018-03-07T00:40:30.787Z,53.77
2018-03-07T00:43:04.816Z,56.47
2018-03-07T00:45:39.286Z,53.50
2018-03-07T00:48:13.098Z,54.87
2018-03-07T00:50:47.560Z,55.67
2018-03-07T00:53:21.469Z,54.90
2018-03-07T00:55:55.307Z,55.50
2018-03-07T00:58:30.524Z,54.67
2018-03-07T01:01:04.867Z,58.37
2018-03-07T01:03:38.987Z,56.10
2018-03-07T01:06:12.607Z,55.97
2018-03-07T01:08:46.360Z,58.00
2018-03-07T01:11:20.000Z,56.40
2018-03-07T01:13:54.443Z,55.17
2018-03-07T01:16:28.228Z,52.80
2018-03-07T01:19:01.996Z,54.77
2018-03-07T01:21:35.628Z,54.80
2018-03-07T01:24:09.312Z,54.57
2018-03-07T01:26:43.050Z,53.63
2018-03-07T01:29:16.938Z,56.53
2018-03-07T01:31:52.200Z,57.87
2018-03-07T01:34:25.921Z,55.13
2018-03-07T01:37:00.452Z,55.00
2018-03-07T01:39:34.312Z,56.47
2018-03-07T01:42:08.010Z,56.17
2018-03-07T01:44:41.804Z,58.07
2018-03-07T01:47:15.432Z,54.13
2018-03-07T01:49:49.994Z,56.13
2018-03-07T01:52:23.875Z,52.57
2018-03-07T01:54:57.549Z,58.03
2018-03-07T01:57:31.307Z,55.37
2018-03-07T02:00:05.652Z,55.97
2018-03-07T02:02:39.448Z,54.47
2018-03-07T02:05:13.116Z,56.43
2018-03-07T02:07:47.088Z,57.93
2018-03-07T02:13:01.305Z,54.33
2018-03-07T02:15:35.620Z,55.43
2018-03-07T02:18:10.080Z,54.77
2018-03-07T02:20:43.898Z,56.73
2018-03-07T02:23:17.693Z,59.07
2018-03-07T02:25:51.310Z,55.47
2018-03-07T02:28:25.697Z,54.13
2018-03-07T02:30:59.489Z,55.97
2018-03-07T02:33:33.831Z,57.07
2018-03-07T02:36:20.039Z,54.97
2018-03-07T02:38:54.324Z,55.60
2018-03-07T02:41:28.360Z,55.17
2018-03-07T02:44:03.475Z,56.13
2018-03-07T02:46:38.099Z,58.30
2018-03-07T02:49:11.822Z,57.07
2018-03-07T02:51:46.946Z,56.97
2018-03-07T02:54:20.988Z,56.47
2018-03-07T02:56:54.650Z,57.67
2018-03-07T02:59:29.088Z,55.20
2018-03-07T03:02:03.105Z,55.97
2018-03-07T03:04:36.723Z,56.00
2018-03-07T03:07:11.232Z,57.30
2018-03-07T03:09:45.898Z,54.67
2018-03-07T03:12:20.083Z,57.90
2018-03-07T03:14:54.394Z,58.40
2018-03-07T03:17:28.071Z,52.47
2018-03-07T03:20:02.004Z,55.90
2018-03-07T03:22:37.114Z,56.10
2018-03-07T03:25:11.038Z,56.57
2018-03-07T03:27:45.436Z,56.00
2018-03-07T03:30:19.104Z,59.30
2018-03-07T03:32:52.745Z,56.97
2018-03-07T03:35:26.497Z,55.13
2018-03-07T03:38:00.350Z,57.30
2018-03-07T03:40:34.876Z,55.10
2018-03-07T03:43:08.561Z,58.10
2018-03-07T03:45:43.046Z,59.70
2018-03-07T03:48:16.822Z,58.17
2018-03-07T03:50:50.524Z,56.47
2018-03-07T03:53:25.035Z,57.33
2018-03-07T03:55:59.528Z,57.90
2018-03-07T03:58:34.082Z,57.17
2018-03-07T04:01:08.762Z,53.00
2018-03-07T04:03:44.036Z,56.23
2018-03-07T04:06:18.271Z,56.50
2018-03-07T04:08:51.892Z,58.03
2018-03-07T04:11:25.455Z,57.23
2018-03-07T04:13:59.918Z,57.80
2018-03-07T04:16:33.995Z,60.23
2018-03-07T04:19:07.654Z,57.53
2018-03-07T04:21:41.329Z,57.93
2018-03-07T04:24:15.046Z,60.40
2018-03-07T04:26:48.841Z,52.57
2018-03-07T04:29:23.442Z,60.67
2018-03-07T04:31:57.299Z,57.13
2018-03-07T04:34:31.788Z,54.57
2018-03-07T04:37:05.611Z,58.80
2018-03-07T04:39:39.501Z,55.80
2018-03-07T04:42:13.205Z,57.40
2018-03-07T04:44:47.723Z,59.47
2018-03-07T04:47:21.447Z,56.90
2018-03-07T04:49:55.165Z,55.27
2018-03-07T04:52:29.265Z,54.30
2018-03-07T04:55:03.350Z,57.50
2018-03-07T04:57:37.645Z,56.43
2018-03-07T05:00:11.693Z,54.20
2018-03-07T05:02:46.002Z,54.13
2018-03-07T05:05:19.877Z,58.40
2018-03-07T05:07:54.225Z,55.17
2018-03-07T05:10:28.135Z,58.13
2018-03-07T05:13:02.009Z,55.17
2018-03-07T05:15:36.284Z,56.10
2018-03-07T05:18:10.088Z,54.60
2018-03-07T05:20:44.550Z,52.57
2018-03-07T05:23:18.308Z,55.30
2018-03-07T05:25:52.104Z,52.90
2018-03-07T05:28:25.744Z,52.90
2018-03-07T05:30:59.515Z,53.73
2018-03-07T05:33:33.187Z,48.53
2018-03-07T05:36:07.736Z,53.30
2018-03-07T05:38:41.792Z,51.33
2018-03-07T05:41:15.288Z,49.60
2018-03-07T05:43:48.973Z,50.70
2018-03-07T05:46:22.628Z,53.20
2018-03-07T05:48:56.449Z,50.93
2018-03-07T05:51:29.924Z,49.60
2018-03-07T05:54:03.685Z,48.93
2018-03-07T05:56:37.305Z,49.20
2018-03-07T05:59:10.980Z,49.63
2018-03-07T06:01:44.794Z,49.60
2018-03-07T06:04:18.454Z,47.20
2018-03-07T06:06:52.996Z,47.90
2018-03-07T06:09:26.816Z,47.50
2018-03-07T06:12:08.482Z,52.60
2018-03-07T06:14:43.162Z,51.77
2018-03-07T06:17:16.990Z,48.13
2018-03-07T06:19:51.460Z,52.07
2018-03-07T06:22:26.308Z,47.70
2018-03-07T06:24:59.871Z,47.83
2018-03-07T06:27:33.689Z,47.90
2018-03-07T06:30:07.363Z,49.20
2018-03-07T06:32:41.042Z,50.43
2018-03-07T06:35:16.195Z,48.30
2018-03-07T06:37:50.491Z,47.57
2018-03-07T06:40:24.249Z,45.10
2018-03-07T06:42:58.832Z,43.70
2018-03-07T06:45:33.750Z,45.03
2018-03-07T06:48:07.587Z,47.47
2018-03-07T06:50:41.234Z,47.57
2018-03-07T06:53:15.124Z,49.30
2018-03-07T06:55:49.018Z,47.67
2018-03-07T06:58:22.883Z,48.87
2018-03-07T07:00:57.503Z,48.73
2018-03-07T07:03:31.281Z,46.73
2018-03-07T07:06:05.009Z,48.73
2018-03-07T07:08:38.822Z,47.40
2018-03-07T07:11:13.203Z,47.73
2018-03-07T07:13:47.148Z,48.97
2018-03-07T07:16:20.740Z,48.57
2018-03-07T07:18:55.463Z,46.30
2018-03-07T07:21:29.251Z,49.57
2018-03-07T07:24:04.239Z,51.23
2018-03-07T07:26:37.942Z,49.10
2018-03-07T07:29:12.668Z,49.77
2018-03-07T07:31:47.629Z,49.70
2018-03-07T07:34:21.471Z,48.03
2018-03-07T07:36:56.631Z,50.80
2018-03-07T07:39:30.584Z,48.90
2018-03-07T07:42:05.869Z,48.20
2018-03-07T07:44:42.869Z,47.07
2018-03-07T07:47:16.616Z,49.60
2018-03-07T07:49:50.290Z,46.30
2018-03-07T07:52:23.962Z,46.50
2018-03-07T07:54:58.407Z,46.60
2018-03-07T07:57:33.037Z,49.10
2018-03-07T08:00:07.015Z,48.50
2018-03-07T08:02:40.924Z,49.27
2018-03-07T08:05:15.282Z,48.57
2018-03-07T08:07:49.455Z,48.27
2018-03-07T08:10:23.287Z,50.37
2018-03-07T08:12:57.118Z,50.37
2018-03-07T08:15:31.495Z,64.33
2018-03-07T08:18:06.260Z,53.13
2018-03-07T08:20:40.959Z,52.97
2018-03-07T08:23:15.051Z,52.73
2018-03-07T08:25:48.991Z,49.27
2018-03-07T08:28:22.590Z,53.10
2018-03-07T08:30:56.345Z,54.07
2018-03-07T08:33:30.102Z,56.43
2018-03-07T08:36:03.779Z,56.83
2018-03-07T08:38:38.213Z,54.27
2018-03-07T08:41:12.205Z,57.03
2018-03-07T08:43:46.755Z,53.23
2018-03-07T08:46:20.757Z,53.20
2018-03-07T08:48:54.538Z,52.77
2018-03-07T08:51:29.089Z,55.97
2018-03-07T08:54:03.261Z,52.70
2018-03-07T08:56:37.331Z,53.80
2018-03-07T08:59:10.982Z,54.60
2018-03-07T09:01:44.857Z,57.20
2018-03-07T09:04:18.840Z,55.40
2018-03-07T09:06:52.475Z,56.90
2018-03-07T09:09:27.090Z,54.13
2018-03-07T09:12:01.118Z,56.80
2018-03-07T09:14:34.907Z,56.83
2018-03-07T09:17:08.733Z,53.90
2018-03-07T09:19:42.284Z,54.23
2018-03-07T09:22:15.921Z,55.40
2018-03-07T09:24:49.734Z,57.60
2018-03-07T09:27:23.455Z,54.53
2018-03-07T09:29:57.370Z,52.80
2018-03-07T09:32:32.161Z,57.07
2018-03-07T09:35:06.164Z,56.40
2018-03-07T09:37:39.872Z,55.93
2018-03-07T09:40:14.444Z,58.20
2018-03-07T09:42:48.458Z,52.47
2018-03-07T09:45:22.980Z,54.73
2018-03-07T09:47:58.604Z,52.83
2018-03-07T09:50:32.928Z,61.03
2018-03-07T09:53:08.436Z,55.80
2018-03-07T09:55:43.051Z,51.77
2018-03-07T09:58:18.449Z,54.33
2018-03-07T10:00:53.735Z,56.00
2018-03-07T10:03:27.679Z,56.10
2018-03-07T10:06:01.452Z,53.70
2018-03-07T10:08:35.074Z,53.50
2018-03-07T10:11:09.644Z,56.50
2018-03-07T10:13:43.497Z,53.73
2018-03-07T10:16:17.816Z,54.57
2018-03-07T10:18:51.667Z,53.33
2018-03-07T10:21:25.984Z,53.77
2018-03-07T10:24:00.253Z,52.00
2018-03-07T10:26:34.007Z,53.73
2018-03-07T10:29:07.758Z,54.27
2018-03-07T10:31:41.554Z,51.63
2018-03-07T10:34:16.326Z,52.30
2018-03-07T10:36:50.327Z,52.83
2018-03-07T10:39:24.119Z,57.00
2018-03-07T10:41:57.941Z,55.10
2018-03-07T10:44:32.442Z,51.17
2018-03-07T10:47:06.446Z,56.23
2018-03-07T10:49:40.860Z,55.57
2018-03-07T10:52:14.833Z,60.93
2018-03-07T10:54:49.368Z,55.17
2018-03-07T10:57:24.061Z,54.33
2018-03-07T10:59:58.236Z,55.97
2018-03-07T11:02:32.283Z,55.20
2018-03-07T11:05:06.195Z,54.93
2018-03-07T11:07:40.075Z,62.43
2018-03-07T11:10:14.563Z,54.67
2018-03-07T11:12:48.353Z,57.83
2018-03-07T11:15:22.213Z,54.63
2018-03-07T11:17:56.094Z,53.77
2018-03-07T11:20:29.828Z,51.87
2018-03-07T11:23:04.771Z,54.77
2018-03-07T11:25:39.164Z,52.83
2018-03-07T11:28:12.996Z,52.63
2018-03-07T11:30:46.691Z,53.43
2018-03-07T11:33:20.537Z,55.43
2018-03-07T11:35:54.320Z,54.73
2018-03-07T11:38:28.899Z,57.10
2018-03-07T11:41:02.923Z,52.93
2018-03-07T11:43:36.436Z,52.30
2018-03-07T11:46:11.103Z,57.90
2018-03-07T11:48:44.747Z,57.67
2018-03-07T11:51:18.451Z,53.70
2018-03-07T11:53:52.512Z,59.07
2018-03-07T11:56:26.765Z,55.27
2018-03-07T11:59:01.300Z,56.23
2018-03-07T12:01:35.774Z,53.43
2018-03-07T12:04:09.995Z,54.70
2018-03-07T12:06:44.362Z,54.60
2018-03-07T12:09:18.178Z,51.13
2018-03-07T12:11:51.859Z,53.80
2018-03-07T12:14:25.946Z,54.20
2018-03-07T12:17:00.257Z,87.13
2018-03-07T12:19:34.171Z,52.53
2018-03-07T12:22:07.695Z,55.73
2018-03-07T12:24:41.413Z,57.00
2018-03-07T12:27:16.305Z,52.37
2018-03-07T12:29:51.051Z,58.00
2018-03-07T12:32:25.759Z,55.37
2018-03-07T12:35:00.620Z,56.80
2018-03-07T12:37:34.496Z,52.10
2018-03-07T12:40:08.143Z,51.57
2018-03-07T12:42:42.224Z,52.93
2018-03-07T12:45:17.163Z,53.63
2018-03-07T12:47:51.222Z,52.60
2018-03-07T12:50:25.685Z,51.90
2018-03-07T12:52:59.668Z,51.40
2018-03-07T12:55:33.262Z,63.93
2018-03-07T12:58:07.820Z,53.70
2018-03-07T13:00:42.007Z,52.47
2018-03-07T13:03:15.688Z,53.40
2018-03-07T13:05:50.278Z,44.50
2018-03-07T13:08:24.887Z,48.83
2018-03-07T13:10:58.907Z,47.30
2018-03-07T13:13:32.678Z,47.77
2018-03-07T13:16:07.336Z,48.77
2018-03-07T13:18:41.715Z,51.23
2018-03-07T13:21:15.836Z,47.53
2018-03-07T13:23:50.658Z,46.20
2018-03-07T13:26:24.494Z,49.30
2018-03-07T13:28:58.090Z,46.80
2018-03-07T13:31:32.608Z,48.40
2018-03-07T13:34:06.849Z,51.23
2018-03-07T13:36:41.163Z,48.97
2018-03-07T13:39:15.335Z,45.27
2018-03-07T13:41:49.994Z,42.83
2018-03-07T13:44:24.616Z,46.67
2018-03-07T13:46:58.687Z,45.87
2018-03-07T13:49:32.441Z,52.27
2018-03-07T13:52:06.167Z,46.93
2018-03-07T13:54:40.051Z,51.30
2018-03-07T13:57:13.614Z,47.23
2018-03-07T13:59:47.300Z,62.83
2018-03-07T14:02:21.876Z,52.40
2018-03-07T14:04:55.852Z,50.90
2018-03-07T14:07:29.475Z,52.77
2018-03-07T14:10:04.097Z,50.70
2018-03-07T14:12:38.845Z,50.90
2018-03-07T14:15:13.280Z,49.67
2018-03-07T14:17:47.567Z,49.70
2018-03-07T14:20:21.887Z,50.03
2018-03-07T14:22:55.752Z,55.20
2018-03-07T14:25:29.675Z,52.47
2018-03-07T14:28:03.487Z,53.70
2018-03-07T14:30:37.101Z,57.33
2018-03-07T14:33:10.903Z,58.57
2018-03-07T14:35:45.525Z,57.07
2018-03-07T14:38:19.430Z,57.60
2018-03-07T14:40:53.183Z,58.20
2018-03-07T14:43:26.997Z,56.70
2018-03-07T14:46:00.734Z,58.93
2018-03-07T14:48:34.411Z,56.77
2018-03-07T14:51:08.474Z,57.73
2018-03-07T14:53:42.049Z,55.60
2018-03-07T14:56:15.719Z,54.07
2018-03-07T14:58:50.320Z,55.53
2018-03-07T15:01:24.223Z,54.30
2018-03-07T15:03:57.988Z,58.90
2018-03-07T15:06:31.539Z,55.33
2018-03-07T15:09:05.308Z,56.60
2018-03-07T15:11:39.004Z,59.00
2018-03-07T15:14:12.635Z,59.10
2018-03-07T15:16:46.415Z,58.43
2018-03-07T15:19:20.355Z,58.40
2018-03-07T15:21:53.974Z,57.07
2018-03-07T15:24:27.780Z,57.60
2018-03-07T15:27:01.563Z,60.77
2018-03-07T15:29:35.419Z,60.77
2018-03-07T15:34:49.996Z,59.57
2018-03-07T15:37:23.707Z,56.60
2018-03-07T15:39:57.565Z,55.80
2018-03-07T15:42:31.274Z,56.10
2018-03-07T15:45:04.909Z,56.20
2018-03-07T15:47:38.628Z,56.33
2018-03-07T15:50:13.188Z,55.27
2018-03-07T15:52:47.222Z,56.27
2018-03-07T15:55:21.165Z,54.67
2018-03-07T15:57:54.852Z,55.40
2018-03-07T16:00:29.295Z,55.97
2018-03-07T16:03:03.130Z,59.63
2018-03-07T16:05:37.447Z,55.47
2018-03-07T16:08:11.444Z,59.37
2018-03-07T16:10:45.196Z,56.10
2018-03-07T16:13:19.784Z,57.40
2018-03-07T16:15:54.646Z,58.30
2018-03-07T16:18:29.323Z,58.30
2018-03-07T16:21:03.317Z,56.20
2018-03-07T16:23:36.881Z,60.20
2018-03-07T16:26:10.581Z,58.40
2018-03-07T16:28:44.359Z,56.47
2018-03-07T16:31:18.095Z,57.30
2018-03-07T16:33:52.657Z,56.47
2018-03-07T16:36:26.671Z,56.20
2018-03-07T16:39:01.000Z,59.40
2018-03-07T16:41:35.783Z,57.17
2018-03-07T16:44:10.565Z,57.63
2018-03-07T16:46:45.236Z,57.90
2018-03-07T16:49:19.248Z,58.60
2018-03-07T16:51:52.890Z,57.10
2018-03-07T16:54:26.656Z,59.80
2018-03-07T16:57:00.335Z,62.30
2018-03-07T16:59:34.059Z,59.70
2018-03-07T17:02:07.797Z,60.00
2018-03-07T17:04:41.548Z,60.20
2018-03-07T17:07:15.201Z,60.93
2018-03-07T17:09:49.022Z,62.77
2018-03-07T17:12:22.552Z,60.53
2018-03-07T17:14:56.410Z,59.67
2018-03-07T17:17:30.019Z,59.97
2018-03-07T17:20:04.579Z,60.20
2018-03-07T17:22:38.410Z,57.77
2018-03-07T17:25:12.248Z,63.33
2018-03-07T17:27:46.683Z,59.43
2018-03-07T17:30:20.736Z,74.07
2018-03-07T17:32:54.334Z,65.37
2018-03-07T17:35:28.104Z,62.83
2018-03-07T17:38:02.622Z,62.23
2018-03-07T17:40:36.430Z,62.63
2018-03-07T17:43:11.030Z,59.77
2018-03-07T17:45:44.938Z,65.97
2018-03-07T17:48:19.201Z,64.43
2018-03-07T17:50:54.382Z,64.37
2018-03-07T17:53:28.292Z,62.83
2018-03-07T17:56:02.041Z,64.97
2018-03-07T17:58:35.636Z,60.30
2018-03-07T18:01:09.296Z,59.90
2018-03-07T18:03:42.977Z,62.13
2018-03-07T18:06:16.701Z,66.60
2018-03-07T18:08:51.172Z,64.10
2018-03-07T18:11:25.211Z,63.53
2018-03-07T18:13:59.123Z,66.40
2018-03-07T18:16:33.699Z,64.27
2018-03-07T18:19:07.628Z,63.40
2018-03-07T18:21:41.247Z,66.43
2018-03-07T18:24:14.938Z,68.40
2018-03-07T18:26:48.741Z,69.50
2018-03-07T18:29:23.111Z,67.70
2018-03-07T18:31:57.873Z,63.20
2018-03-07T18:34:32.733Z,63.20
2018-03-07T18:37:06.727Z,62.33
2018-03-07T18:39:40.529Z,62.47
2018-03-07T18:42:14.272Z,60.13
2018-03-07T18:44:47.803Z,64.87
2018-03-07T18:47:21.590Z,66.17
2018-03-07T18:49:55.246Z,66.27
2018-03-07T18:52:29.050Z,66.10
2018-03-07T18:55:02.783Z,61.93
2018-03-07T18:57:37.337Z,62.87
2018-03-07T19:00:11.291Z,61.07
2018-03-07T19:02:46.573Z,64.10
2018-03-07T19:05:20.748Z,60.50
2018-03-07T19:07:55.273Z,61.80
2018-03-07T19:10:29.211Z,64.10
2018-03-07T19:13:03.716Z,60.47
2018-03-07T19:15:37.781Z,60.63
2018-03-07T19:18:11.404Z,59.10
2018-03-07T19:20:45.196Z,61.93
2018-03-07T19:23:19.239Z,63.37
2018-03-07T19:25:52.979Z,61.83
2018-03-07T19:28:26.648Z,60.90
2018-03-07T19:31:00.278Z,63.43
2018-03-07T19:33:34.078Z,58.10
2018-03-07T19:36:07.616Z,58.77
2018-03-07T19:38:41.264Z,64.00
2018-03-07T19:41:15.772Z,63.30
2018-03-07T19:43:49.906Z,62.50
2018-03-07T19:46:23.771Z,58.37
2018-03-07T19:48:57.477Z,62.97
2018-03-07T19:51:31.216Z,60.57
2018-03-07T19:54:05.552Z,59.53
2018-03-07T19:56:40.263Z,64.87
2018-03-07T19:59:14.393Z,63.23
2018-03-07T20:01:48.740Z,60.10
2018-03-07T20:04:22.739Z,61.03
2018-03-07T20:06:57.983Z,60.83
2018-03-07T20:09:32.369Z,58.80
2018-03-07T20:12:06.409Z,58.87
2018-03-07T20:14:41.394Z,58.50
2018-03-07T20:17:15.413Z,65.53
2018-03-07T20:19:51.475Z,61.13
2018-03-07T20:22:26.731Z,60.63
2018-03-07T20:25:00.327Z,66.87
2018-03-07T20:27:35.012Z,63.43
2018-03-07T20:30:09.952Z,64.23
2018-03-07T20:32:44.605Z,64.70
2018-03-07T20:35:18.438Z,66.50
2018-03-07T20:37:52.232Z,69.30
2018-03-07T20:40:26.824Z,64.73
2018-03-07T20:43:01.495Z,62.57
2018-03-07T20:45:35.289Z,63.37
2018-03-07T20:48:09.586Z,64.13
2018-03-07T20:50:43.616Z,64.57
2018-03-07T20:53:17.314Z,65.70
2018-03-07T20:55:51.023Z,64.60
2018-03-07T20:58:25.646Z,67.00
2018-03-07T21:00:59.464Z,64.87
2018-03-07T21:03:33.247Z,58.77
2018-03-07T21:06:06.951Z,66.47
2018-03-07T21:08:41.470Z,71.07
2018-03-07T21:11:15.855Z,67.90
2018-03-07T21:13:50.778Z,66.83
2018-03-07T21:16:26.122Z,67.30
2018-03-07T21:19:00.481Z,66.53
2018-03-07T21:21:34.140Z,67.37
2018-03-07T21:24:07.892Z,72.97
2018-03-07T21:26:42.282Z,66.77
2018-03-07T21:29:17.007Z,71.07
2018-03-07T21:31:51.086Z,70.73
2018-03-07T21:34:24.720Z,65.03
2018-03-07T21:36:58.480Z,65.53
2018-03-07T21:39:32.464Z,64.63
2018-03-07T21:42:06.037Z,59.47
2018-03-07T21:44:39.611Z,64.37
2018-03-07T21:47:13.338Z,66.30
2018-03-07T21:49:47.185Z,65.70
2018-03-07T21:52:21.042Z,66.70
2018-03-07T21:54:55.676Z,64.83
2018-03-07T21:57:29.290Z,63.50
2018-03-07T22:00:03.066Z,66.60
2018-03-07T22:02:36.647Z,60.30
2018-03-07T22:05:10.491Z,64.30
2018-03-07T22:07:44.198Z,67.30
2018-03-07T22:10:18.075Z,63.30
2018-03-07T22:12:52.437Z,69.63
2018-03-07T22:15:26.116Z,69.70
2018-03-07T22:17:59.828Z,63.20
2018-03-07T22:20:33.430Z,60.53
2018-03-07T22:23:07.059Z,62.57
2018-03-07T22:25:41.652Z,64.70
2018-03-07T22:28:15.692Z,62.63
2018-03-07T22:30:49.576Z,63.57
2018-03-07T22:33:24.036Z,65.17
2018-03-07T22:35:57.805Z,64.33
2018-03-07T22:38:32.214Z,57.73
2018-03-07T22:41:06.125Z,66.20
2018-03-07T22:43:40.551Z,64.67
2018-03-07T22:46:14.618Z,63.37
2018-03-07T22:48:49.214Z,62.17
2018-03-07T22:51:23.952Z,62.60
2018-03-07T22:53:58.830Z,62.20
2018-03-07T22:56:32.902Z,62.20
2018-03-07T22:59:06.794Z,65.60
2018-03-07T23:01:40.759Z,62.30
2018-03-07T23:04:14.322Z,64.70
2018-03-07T23:06:48.187Z,61.17
2018-03-07T23:09:21.765Z,62.13
2018-03-07T23:11:55.618Z,58.40
2018-03-07T23:14:29.300Z,60.23
2018-03-07T23:17:04.022Z,58.60
2018-03-07T23:19:38.201Z,59.80
2018-03-07T23:22:11.683Z,59.10
2018-03-07T23:24:46.128Z,59.37
2018-03-07T23:27:20.059Z,57.93
2018-03-07T23:29:53.678Z,60.43
2018-03-07T23:32:27.231Z,56.80
2018-03-07T23:35:01.064Z,52.67
2018-03-07T23:37:34.927Z,46.30
2018-03-07T23:40:09.451Z,52.23
2018-03-07T23:42:43.508Z,48.07
2018-03-07T23:45:17.125Z,46.03
2018-03-07T23:47:50.979Z,43.30
2018-03-07T23:50:25.426Z,43.60
2018-03-07T23:53:00.285Z,46.03
2018-03-07T23:55:34.262Z,45.70
2018-03-07T23:58:07.869Z,42.90
